This is the latest recevied weather packets stored in our database for station/object WI0K. If no packets are shown the sender has not sent any weather packets the latest 10 day(s).
| Time | Temp. | Humidity | Pressure | Rain* | Wind** | Luminosity | Snow |
|---|---|---|---|---|---|---|---|
| 1778098867 | 3.89° C | 73% | 1020.2 hPa | 0 mm | - | 588 W/m² | - |
| 1778098627 | 3.89° C | 73% | 1020.2 hPa | 0 mm | - | 588 W/m² | - |
| 1778098577 | 3.89° C | 75% | 1020.2 hPa | 0 mm | - | 541 W/m² | - |
| 1778098326 | 3.89° C | 75% | 1020.2 hPa | 0 mm | - | 541 W/m² | - |
| 1778098276 | 3.89° C | 74% | 1020.2 hPa | 0 mm | - | 539 W/m² | - |
| 1778098025 | 3.89° C | 74% | 1020.2 hPa | 0 mm | - | 539 W/m² | - |
| 1778097976 | 3.33° C | 76% | 1020.2 hPa | 0 mm | - | 910 W/m² | - |
| 1778097725 | 3.33° C | 76% | 1020.2 hPa | 0 mm | - | 910 W/m² | - |
| 1778097424 | 2.78° C | 80% | 1020.3 hPa | 0 mm | - | 796 W/m² | - |
| 1778097360 | 2.78° C | 79% | 1020.3 hPa | 0 mm | - | 684 W/m² | - |
| 1778097123 | 2.78° C | 79% | 1020.3 hPa | 0 mm | - | 684 W/m² | - |
| 1778096823 | 2.22° C | 84% | 1020.3 hPa | 0 mm | - | 601 W/m² | - |
| 1778096749 | 2.22° C | 82% | 1020.3 hPa | 0 mm | - | 580 W/m² | - |
| 1778096522 | 2.22° C | 82% | 1020.3 hPa | 0 mm | - | 580 W/m² | - |
| 1778096221 | 2.22° C | 86% | 1020.4 hPa | 0 mm | - | 972 W/m² | - |
| 1778095921 | 2.22° C | 81% | 1020.4 hPa | 0 mm | - | 699 W/m² | - |
| 1778095620 | 1.67° C | 81% | 1020.4 hPa | 0 mm | - | 669 W/m² | - |
| 1778095319 | 1.67° C | 80% | 1020.4 hPa | 0 mm | - | 724 W/m² | - |
| 1778095019 | 1.11° C | 85% | 1020.5 hPa | 0 mm | - | 777 W/m² | - |
| 1778094718 | 1.11° C | 85% | 1020.5 hPa | 0 mm | - | 930 W/m² | - |
| 1778094418 | 1.11° C | 85% | 1020.5 hPa | 0 mm | - | 602 W/m² | - |
| 1778094117 | 1.11° C | 87% | 1020.5 hPa | 0 mm | - | 779 W/m² | - |
| 1778093816 | 0.56° C | 89% | 1020.7 hPa | 0 mm | - | 986 W/m² | - |
| 1778093516 | 0.56° C | 88% | 1020.7 hPa | 0 mm | - | 638 W/m² | - |
| 1778093214 | 0.56° C | 87% | 1020.8 hPa | 0 mm | - | 867 W/m² | - |
* Rain latest hour (hover to see other rain measurements)
** Current wind speed in m/s (hover to see current wind gust speed)